sensor_id;sensor_type;location;lat;lon;timestamp;temperature;humidity
22108;DHT22;11220;48.812;9.128;2022-09-03T06:38:18;21.00;82.80
22108;DHT22;11220;48.812;9.128;2022-09-03T06:40:54;21.20;83.20
22108;DHT22;11220;48.812;9.128;2022-09-03T06:43:20;21.00;83.00
22108;DHT22;11220;48.812;9.128;2022-09-03T06:45:53;21.00;83.00
22108;DHT22;11220;48.812;9.128;2022-09-03T06:48:19;21.00;83.10
22108;DHT22;11220;48.812;9.128;2022-09-03T07:01:19;21.00;83.30
22108;DHT22;11220;48.812;9.128;2022-09-03T07:03:47;22.60;84.80
22108;DHT22;11220;48.812;9.128;2022-09-03T07:06:19;22.80;84.70
22108;DHT22;11220;48.812;9.128;2022-09-03T07:08:47;23.00;86.90
22108;DHT22;11220;48.812;9.128;2022-09-03T07:11:18;22.50;85.00
22108;DHT22;11220;48.812;9.128;2022-09-03T07:13:57;20.90;84.10
22108;DHT22;11220;48.812;9.128;2022-09-03T07:16:36;21.00;83.90
22108;DHT22;11220;48.812;9.128;2022-09-03T07:19:20;20.90;83.20
22108;DHT22;11220;48.812;9.128;2022-09-03T07:21:46;21.20;83.40
22108;DHT22;11220;48.812;9.128;2022-09-03T07:24:18;23.00;87.10
22108;DHT22;11220;48.812;9.128;2022-09-03T07:26:46;21.10;84.50
22108;DHT22;11220;48.812;9.128;2022-09-03T07:29:20;21.20;85.10
22108;DHT22;11220;48.812;9.128;2022-09-03T07:32:35;21.10;85.10
22108;DHT22;11220;48.812;9.128;2022-09-03T07:38:29;21.10;84.10
22108;DHT22;11220;48.812;9.128;2022-09-03T08:17:53;21.30;84.50
22108;DHT22;11220;48.812;9.128;2022-09-03T08:20:19;21.20;83.90
22108;DHT22;11220;48.812;9.128;2022-09-03T08:22:45;21.20;84.90
22108;DHT22;11220;48.812;9.128;2022-09-03T08:25:11;21.30;84.50
22108;DHT22;11220;48.812;9.128;2022-09-03T08:27:36;23.30;84.90
22108;DHT22;11220;48.812;9.128;2022-09-03T08:30:02;21.30;84.40
22108;DHT22;11220;48.812;9.128;2022-09-03T08:32:28;21.30;84.40
22108;DHT22;11220;48.812;9.128;2022-09-03T08:34:57;21.30;83.80
22108;DHT22;11220;48.812;9.128;2022-09-03T08:37:24;21.10;84.60
22108;DHT22;11220;48.812;9.128;2022-09-03T08:39:53;21.30;85.70
22108;DHT22;11220;48.812;9.128;2022-09-03T08:46:19;21.90;83.90
22108;DHT22;11220;48.812;9.128;2022-09-03T10:22:48;21.80;86.20
22108;DHT22;11220;48.812;9.128;2022-09-03T10:25:17;21.80;86.20
22108;DHT22;11220;48.812;9.128;2022-09-03T10:27:44;21.80;86.30
22108;DHT22;11220;48.812;9.128;2022-09-03T10:30:11;21.80;86.30
22108;DHT22;11220;48.812;9.128;2022-09-03T11:54:49;22.10;87.00
22108;DHT22;11220;48.812;9.128;2022-09-03T11:57:30;22.10;87.90
22108;DHT22;11220;48.812;9.128;2022-09-03T12:00:10;22.40;87.40
22108;DHT22;11220;48.812;9.128;2022-09-03T12:02:45;22.10;87.10
22108;DHT22;11220;48.812;9.128;2022-09-03T12:08:42;22.10;87.20
22108;DHT22;11220;48.812;9.128;2022-09-03T12:17:52;22.10;87.00
22108;DHT22;11220;48.812;9.128;2022-09-03T12:20:39;22.10;87.00
22108;DHT22;11220;48.812;9.128;2022-09-03T12:23:06;22.10;87.00
22108;DHT22;11220;48.812;9.128;2022-09-03T12:25:32;22.10;87.00
22108;DHT22;11220;48.812;9.128;2022-09-03T12:28:01;22.00;86.90
22108;DHT22;11220;48.812;9.128;2022-09-03T12:30:29;22.10;87.10
22108;DHT22;11220;48.812;9.128;2022-09-03T12:33:07;22.30;87.20
22108;DHT22;11220;48.812;9.128;2022-09-03T12:35:37;22.10;87.00
22108;DHT22;11220;48.812;9.128;2022-09-03T12:38:03;22.00;86.90
22108;DHT22;11220;48.812;9.128;2022-09-03T12:40:29;22.20;87.10
22108;DHT22;11220;48.812;9.128;2022-09-03T12:43:11;22.00;87.00
22108;DHT22;11220;48.812;9.128;2022-09-03T12:45:43;22.00;86.90
22108;DHT22;11220;48.812;9.128;2022-09-03T13:34:04;22.10;87.40
22108;DHT22;11220;48.812;9.128;2022-09-03T13:37:03;22.10;87.50
22108;DHT22;11220;48.812;9.128;2022-09-03T13:40:02;22.20;87.90
22108;DHT22;11220;48.812;9.128;2022-09-03T13:42:39;22.30;88.00
22108;DHT22;11220;48.812;9.128;2022-09-03T13:48:12;22.30;88.20
22108;DHT22;11220;48.812;9.128;2022-09-03T13:51:27;22.40;88.20
22108;DHT22;11220;48.812;9.128;2022-09-03T13:54:06;22.40;88.20
22108;DHT22;11220;48.812;9.128;2022-09-03T14:02:48;22.40;88.30
22108;DHT22;11220;48.812;9.128;2022-09-03T14:16:39;22.50;88.70
22108;DHT22;11220;48.812;9.128;2022-09-03T14:22:28;22.50;89.80
22108;DHT22;11220;48.812;9.128;2022-09-03T14:25:02;22.50;88.90
22108;DHT22;11220;48.812;9.128;2022-09-03T14:27:30;22.50;89.00
22108;DHT22;11220;48.812;9.128;2022-09-03T14:30:40;22.50;89.00
22108;DHT22;11220;48.812;9.128;2022-09-03T14:33:17;22.50;89.00
22108;DHT22;11220;48.812;9.128;2022-09-03T14:41:44;22.50;89.10
22108;DHT22;11220;48.812;9.128;2022-09-03T14:44:20;22.50;89.20
22108;DHT22;11220;48.812;9.128;2022-09-03T14:58:11;22.50;89.30
22108;DHT22;11220;48.812;9.128;2022-09-03T15:01:06;22.50;89.40
22108;DHT22;11220;48.812;9.128;2022-09-03T15:09:36;22.50;89.50
22108;DHT22;11220;48.812;9.128;2022-09-03T15:13:05;22.60;89.70
22108;DHT22;11220;48.812;9.128;2022-09-03T15:53:45;23.10;89.20
22108;DHT22;11220;48.812;9.128;2022-09-03T16:00:10;23.10;89.10
22108;DHT22;11220;48.812;9.128;2022-09-03T16:02:46;23.10;89.20
22108;DHT22;11220;48.812;9.128;2022-09-03T16:05:48;23.10;89.20
22108;DHT22;11220;48.812;9.128;2022-09-03T16:10:49;23.10;89.30
22108;DHT22;11220;48.812;9.128;2022-09-03T16:13:42;23.00;89.30
22108;DHT22;11220;48.812;9.128;2022-09-03T16:16:15;23.00;89.30
22108;DHT22;11220;48.812;9.128;2022-09-03T16:18:57;23.10;89.40
22108;DHT22;11220;48.812;9.128;2022-09-03T16:24:16;23.00;89.50
22108;DHT22;11220;48.812;9.128;2022-09-03T16:27:37;23.00;89.50
22108;DHT22;11220;48.812;9.128;2022-09-03T16:30:07;23.00;89.60
22108;DHT22;11220;48.812;9.128;2022-09-03T16:46:49;22.90;89.90
22108;DHT22;11220;48.812;9.128;2022-09-03T16:49:36;22.90;89.80
22108;DHT22;11220;48.812;9.128;2022-09-03T16:58:08;22.90;89.90
22108;DHT22;11220;48.812;9.128;2022-09-03T17:01:07;22.90;89.90
22108;DHT22;11220;48.812;9.128;2022-09-03T17:04:26;22.90;89.90
22108;DHT22;11220;48.812;9.128;2022-09-03T17:10:36;22.90;90.00
22108;DHT22;11220;48.812;9.128;2022-09-03T17:37:55;22.80;91.10
22108;DHT22;11220;48.812;9.128;2022-09-03T17:40:46;22.80;91.10
22108;DHT22;11220;48.812;9.128;2022-09-03T17:53:55;22.80;91.00
22108;DHT22;11220;48.812;9.128;2022-09-03T17:56:29;22.70;91.00
22108;DHT22;11220;48.812;9.128;2022-09-03T18:01:39;22.70;90.90
22108;DHT22;11220;48.812;9.128;2022-09-03T18:05:20;22.80;91.00
22108;DHT22;11220;48.812;9.128;2022-09-03T18:12:50;22.70;91.00
22108;DHT22;11220;48.812;9.128;2022-09-03T18:18:27;22.70;91.10
22108;DHT22;11220;48.812;9.128;2022-09-03T18:20:56;22.70;91.00
22108;DHT22;11220;48.812;9.128;2022-09-03T18:26:32;22.70;91.00
22108;DHT22;11220;48.812;9.128;2022-09-03T18:30:04;22.70;91.00
22108;DHT22;11220;48.812;9.128;2022-09-03T18:32:49;22.70;91.00
22108;DHT22;11220;48.812;9.128;2022-09-03T18:35:36;22.60;91.00
22108;DHT22;11220;48.812;9.128;2022-09-03T18:38:29;22.70;91.10
22108;DHT22;11220;48.812;9.128;2022-09-03T18:44:53;22.60;91.00
22108;DHT22;11220;48.812;9.128;2022-09-03T18:48:00;22.60;91.00
22108;DHT22;11220;48.812;9.128;2022-09-03T18:51:13;22.60;91.00
22108;DHT22;11220;48.812;9.128;2022-09-03T18:57:03;22.60;91.00
22108;DHT22;11220;48.812;9.128;2022-09-03T19:00:08;22.60;91.00
22108;DHT22;11220;48.812;9.128;2022-09-03T19:03:03;22.60;91.00
22108;DHT22;11220;48.812;9.128;2022-09-03T19:15:23;22.60;91.00
22108;DHT22;11220;48.812;9.128;2022-09-03T19:24:03;22.50;91.00
22108;DHT22;11220;48.812;9.128;2022-09-03T19:27:44;22.50;91.00
22108;DHT22;11220;48.812;9.128;2022-09-03T19:30:13;22.50;91.00
22108;DHT22;11220;48.812;9.128;2022-09-03T19:48:17;22.40;91.40
22108;DHT22;11220;48.812;9.128;2022-09-03T19:51:31;22.40;91.40
22108;DHT22;11220;48.812;9.128;2022-09-03T19:54:20;22.40;91.40
22108;DHT22;11220;48.812;9.128;2022-09-03T19:57:05;22.40;91.40
22108;DHT22;11220;48.812;9.128;2022-09-03T19:59:51;22.40;91.30
22108;DHT22;11220;48.812;9.128;2022-09-03T20:02:37;22.40;91.30
22108;DHT22;11220;48.812;9.128;2022-09-03T20:05:22;22.40;91.30
22108;DHT22;11220;48.812;9.128;2022-09-03T20:08:07;22.40;91.30
22108;DHT22;11220;48.812;9.128;2022-09-03T20:10:55;23.60;91.60
22108;DHT22;11220;48.812;9.128;2022-09-03T20:13:21;22.60;91.30
22108;DHT22;11220;48.812;9.128;2022-09-03T20:16:31;22.40;91.20
22108;DHT22;11220;48.812;9.128;2022-09-03T20:30:18;22.40;91.20
22108;DHT22;11220;48.812;9.128;2022-09-03T20:38:24;22.40;91.10
22108;DHT22;11220;48.812;9.128;2022-09-03T20:43:51;22.30;91.20
22108;DHT22;11220;48.812;9.128;2022-09-03T20:51:56;22.30;91.30
22108;DHT22;11220;48.812;9.128;2022-09-03T20:54:29;22.30;91.30
22108;DHT22;11220;48.812;9.128;2022-09-03T21:00:04;22.30;91.30
22108;DHT22;11220;48.812;9.128;2022-09-03T21:02:46;22.20;91.30
22108;DHT22;11220;48.812;9.128;2022-09-03T21:05:31;22.30;91.30
22108;DHT22;11220;48.812;9.128;2022-09-03T21:11:04;22.30;91.40
22108;DHT22;11220;48.812;9.128;2022-09-03T21:13:52;22.40;91.40
22108;DHT22;11220;48.812;9.128;2022-09-03T21:16:35;22.30;91.40
22108;DHT22;11220;48.812;9.128;2022-09-03T21:19:17;22.30;91.40
22108;DHT22;11220;48.812;9.128;2022-09-03T21:24:52;22.30;91.40
22108;DHT22;11220;48.812;9.128;2022-09-03T21:27:22;22.20;91.40
22108;DHT22;11220;48.812;9.128;2022-09-03T21:30:07;22.30;91.40
22108;DHT22;11220;48.812;9.128;2022-09-03T21:35:30;22.20;91.40
22108;DHT22;11220;48.812;9.128;2022-09-03T21:38:10;22.30;91.40
22108;DHT22;11220;48.812;9.128;2022-09-03T21:40:43;22.20;91.40
22108;DHT22;11220;48.812;9.128;2022-09-03T21:43:18;22.20;91.40
22108;DHT22;11220;48.812;9.128;2022-09-03T21:46:10;22.20;91.40
22108;DHT22;11220;48.812;9.128;2022-09-03T21:48:47;22.20;91.40
22108;DHT22;11220;48.812;9.128;2022-09-03T21:51:20;22.20;91.40
22108;DHT22;11220;48.812;9.128;2022-09-03T21:54:04;22.40;91.50
22108;DHT22;11220;48.812;9.128;2022-09-03T22:04:41;22.10;91.40
22108;DHT22;11220;48.812;9.128;2022-09-03T22:07:24;22.20;91.50
22108;DHT22;11220;48.812;9.128;2022-09-03T22:13:02;22.10;91.40
22108;DHT22;11220;48.812;9.128;2022-09-03T22:15:34;22.10;91.40
22108;DHT22;11220;48.812;9.128;2022-09-03T22:18:26;22.10;91.40
22108;DHT22;11220;48.812;9.128;2022-09-03T22:23:59;22.10;91.40
22108;DHT22;11220;48.812;9.128;2022-09-03T22:26:46;22.10;91.50
22108;DHT22;11220;48.812;9.128;2022-09-03T22:45:43;22.10;91.50
22108;DHT22;11220;48.812;9.128;2022-09-03T22:51:02;22.00;91.50
22108;DHT22;11220;48.812;9.128;2022-09-03T22:56:10;22.00;91.60
22108;DHT22;11220;48.812;9.128;2022-09-03T22:58:55;22.00;91.60
22108;DHT22;11220;48.812;9.128;2022-09-03T23:01:26;22.00;91.60
22108;DHT22;11220;48.812;9.128;2022-09-03T23:06:50;22.00;91.60
22108;DHT22;11220;48.812;9.128;2022-09-03T23:09:26;22.00;91.60
22108;DHT22;11220;48.812;9.128;2022-09-03T23:11:59;22.00;91.60
22108;DHT22;11220;48.812;9.128;2022-09-03T23:14:32;22.10;91.70
22108;DHT22;11220;48.812;9.128;2022-09-03T23:17:10;22.00;91.70
22108;DHT22;11220;48.812;9.128;2022-09-03T23:19:43;22.00;91.70
22108;DHT22;11220;48.812;9.128;2022-09-03T23:22:36;22.00;91.70
22108;DHT22;11220;48.812;9.128;2022-09-03T23:25:19;22.00;91.70
22108;DHT22;11220;48.812;9.128;2022-09-03T23:28:05;22.00;91.70
22108;DHT22;11220;48.812;9.128;2022-09-03T23:30:32;22.00;91.70
22108;DHT22;11220;48.812;9.128;2022-09-03T23:32:58;22.00;91.70
22108;DHT22;11220;48.812;9.128;2022-09-03T23:35:29;22.00;91.70
22108;DHT22;11220;48.812;9.128;2022-09-03T23:41:01;22.00;91.80
22108;DHT22;11220;48.812;9.128;2022-09-03T23:44:02;22.00;91.80
22108;DHT22;11220;48.812;9.128;2022-09-03T23:46:45;22.00;91.80
22108;DHT22;11220;48.812;9.128;2022-09-03T23:49:33;22.00;91.80
22108;DHT22;11220;48.812;9.128;2022-09-03T23:54:45;21.90;91.80
